createdAt,value
2019-02-11T00:01:39.491Z,4.55
2019-02-11T00:04:13.120Z,4.50
2019-02-11T00:06:46.313Z,4.53
2019-02-11T00:09:19.687Z,4.53
2019-02-11T00:11:52.952Z,4.54
2019-02-11T00:14:35.146Z,4.58
2019-02-11T00:17:12.791Z,4.56
2019-02-11T00:19:46.766Z,4.54
2019-02-11T00:22:24.459Z,4.58
2019-02-11T00:24:59.136Z,4.58
2019-02-11T00:27:33.662Z,4.55
2019-02-11T00:30:07.365Z,4.50
2019-02-11T00:32:40.799Z,4.54
2019-02-11T00:35:14.823Z,4.49
2019-02-11T00:37:47.717Z,4.47
2019-02-11T00:40:30.152Z,4.51
2019-02-11T00:43:19.215Z,4.57
2019-02-11T00:45:48.938Z,4.55
2019-02-11T00:48:23.739Z,4.57
2019-02-11T00:51:12.048Z,4.59
2019-02-11T00:53:55.239Z,4.56
2019-02-11T00:56:30.878Z,4.52
2019-02-11T00:59:04.638Z,4.54
2019-02-11T01:01:40.374Z,4.57
2019-02-11T01:04:14.628Z,4.58
2019-02-11T01:06:57.120Z,4.60
2019-02-11T01:09:43.642Z,4.59
2019-02-11T01:12:17.145Z,4.56
2019-02-11T01:14:59.549Z,4.58
2019-02-11T01:17:42.343Z,4.60
2019-02-11T01:20:24.732Z,4.60
2019-02-11T01:22:58.643Z,4.62
2019-02-11T01:25:32.724Z,4.57
2019-02-11T01:28:16.335Z,4.64
2019-02-11T01:30:59.208Z,4.61
2019-02-11T01:33:42.145Z,4.61
2019-02-11T01:36:24.173Z,4.62
2019-02-11T01:38:57.327Z,4.66
2019-02-11T01:41:30.437Z,4.68
2019-02-11T01:44:12.861Z,4.73
2019-02-11T01:46:46.025Z,4.66
2019-02-11T01:49:19.822Z,4.70
2019-02-11T01:51:59.149Z,4.68
2019-02-11T01:54:41.212Z,4.77
2019-02-11T01:57:14.437Z,4.80
2019-02-11T01:59:48.306Z,4.86
2019-02-11T02:02:22.505Z,4.83
2019-02-11T02:05:05.117Z,4.89
2019-02-11T02:07:38.273Z,4.87
2019-02-11T02:10:11.995Z,4.87
2019-02-11T02:12:45.506Z,4.80
2019-02-11T02:15:19.269Z,4.80
2019-02-11T02:17:52.809Z,4.85
2019-02-11T02:20:26.784Z,4.85
2019-02-11T02:23:10.765Z,4.91
2019-02-11T02:25:44.510Z,4.85
2019-02-11T02:28:17.731Z,4.79
2019-02-11T02:30:51.441Z,4.78
2019-02-11T02:33:24.950Z,4.80
2019-02-11T02:35:58.430Z,4.83
2019-02-11T02:38:31.971Z,4.89
2019-02-11T02:41:05.063Z,4.83
2019-02-11T02:43:55.198Z,4.91
2019-02-11T02:46:34.477Z,4.94
2019-02-11T02:49:07.930Z,4.94
2019-02-11T02:51:41.312Z,4.93
2019-02-11T02:54:14.861Z,4.94
2019-02-11T02:56:48.747Z,4.96
2019-02-11T02:59:22.723Z,4.99
2019-02-11T03:02:05.910Z,5.01
2019-02-11T03:04:48.569Z,5.00
2019-02-11T03:07:36.673Z,5.04
2019-02-11T03:10:21.913Z,4.99
2019-02-11T03:12:55.415Z,5.05
2019-02-11T03:15:28.805Z,5.08
2019-02-11T03:18:03.925Z,5.08
2019-02-11T03:20:38.092Z,5.10
2019-02-11T03:23:20.355Z,5.17
2019-02-11T03:25:53.764Z,5.10
2019-02-11T03:28:27.306Z,5.10
2019-02-11T03:31:00.696Z,5.05
2019-02-11T03:33:34.890Z,5.05
2019-02-11T03:36:09.309Z,5.16
2019-02-11T03:38:51.161Z,5.16
2019-02-11T03:41:27.062Z,5.18
2019-02-11T03:44:15.051Z,5.21
2019-02-11T03:46:46.781Z,5.19
2019-02-11T03:49:29.449Z,5.19
2019-02-11T03:52:11.956Z,5.24
2019-02-11T03:54:45.787Z,5.22
2019-02-11T03:57:19.222Z,5.21
2019-02-11T03:59:52.632Z,5.23
2019-02-11T04:02:25.860Z,5.27
2019-02-11T04:04:59.233Z,5.25
2019-02-11T04:07:33.080Z,5.24
2019-02-11T04:10:07.191Z,5.19
2019-02-11T04:12:41.090Z,5.12
2019-02-11T04:15:23.443Z,5.20
2019-02-11T04:17:58.273Z,5.12
2019-02-11T04:20:41.794Z,5.23
2019-02-11T04:23:15.342Z,5.20
2019-02-11T04:25:48.755Z,5.12
2019-02-11T04:28:22.834Z,5.16
2019-02-11T04:31:06.160Z,5.13
2019-02-11T04:33:40.055Z,5.10
2019-02-11T04:36:16.768Z,5.02
2019-02-11T04:38:50.338Z,4.99
2019-02-11T04:41:23.847Z,5.06
2019-02-11T04:43:57.649Z,5.00
2019-02-11T04:46:33.567Z,5.02
2019-02-11T04:49:06.701Z,4.96
2019-02-11T04:51:40.204Z,5.00
2019-02-11T04:54:14.647Z,5.04
2019-02-11T04:56:47.320Z,5.08
2019-02-11T04:59:20.718Z,5.16
2019-02-11T05:01:54.090Z,5.17
2019-02-11T05:04:36.214Z,5.18
2019-02-11T05:07:10.243Z,5.12
2019-02-11T05:09:52.431Z,5.16
2019-02-11T05:12:26.240Z,5.07
2019-02-11T05:14:59.746Z,5.06
2019-02-11T05:17:33.500Z,5.11
2019-02-11T05:20:07.437Z,5.09
2019-02-11T05:22:56.277Z,5.17
2019-02-11T05:25:38.660Z,5.13
2019-02-11T05:28:12.082Z,5.09
2019-02-11T05:30:45.565Z,5.06
2019-02-11T05:33:21.100Z,5.07
2019-02-11T05:35:55.236Z,5.05
2019-02-11T05:38:37.608Z,5.02
2019-02-11T05:41:10.867Z,4.98
2019-02-11T05:43:46.317Z,4.97
2019-02-11T05:46:20.564Z,5.00
2019-02-11T05:48:54.294Z,4.93
2019-02-11T05:51:28.686Z,4.90
2019-02-11T05:54:02.412Z,4.87
2019-02-11T05:56:36.914Z,4.86
2019-02-11T05:59:10.629Z,4.83
2019-02-11T06:01:43.746Z,4.85
2019-02-11T06:04:26.256Z,4.88
2019-02-11T06:07:10.118Z,4.86
2019-02-11T06:09:43.882Z,4.78
2019-02-11T06:12:17.632Z,4.78
2019-02-11T06:14:50.816Z,4.78
2019-02-11T06:17:23.906Z,4.85
2019-02-11T06:20:08.876Z,4.92
2019-02-11T06:22:41.949Z,4.86
2019-02-11T06:25:24.137Z,4.92
2019-02-11T06:27:57.275Z,4.92
2019-02-11T06:30:31.042Z,4.89
2019-02-11T06:33:04.587Z,4.93
2019-02-11T06:35:38.349Z,4.90
2019-02-11T06:38:11.849Z,4.90
2019-02-11T06:40:45.368Z,4.95
2019-02-11T06:43:19.529Z,4.94
2019-02-11T06:46:02.085Z,5.00
2019-02-11T06:48:35.834Z,4.94
2019-02-11T06:51:09.935Z,4.89
2019-02-11T06:53:56.372Z,4.99
2019-02-11T06:56:29.820Z,4.97
2019-02-11T06:59:03.020Z,4.92
2019-02-11T07:01:51.676Z,4.97
2019-02-11T07:04:41.124Z,4.94
2019-02-11T07:07:14.285Z,4.83
2019-02-11T07:09:57.021Z,4.80
2019-02-11T07:12:39.225Z,4.86
2019-02-11T07:15:21.316Z,4.83
2019-02-11T07:17:48.548Z,4.83
2019-02-11T07:20:31.783Z,4.80
2019-02-11T07:23:14.282Z,4.75
2019-02-11T07:25:56.717Z,4.73
2019-02-11T07:28:30.200Z,4.66
2019-02-11T07:31:03.643Z,4.68
2019-02-11T07:33:37.045Z,4.77
2019-02-11T07:36:10.836Z,4.79
2019-02-11T07:38:46.159Z,4.86
2019-02-11T07:41:20.659Z,4.91
2019-02-11T07:43:57.544Z,4.91
2019-02-11T07:46:51.596Z,4.96
2019-02-11T07:49:24.865Z,4.90
2019-02-11T07:52:06.994Z,4.92
2019-02-11T07:54:40.475Z,4.91
2019-02-11T07:57:14.310Z,4.85
2019-02-11T07:59:47.700Z,4.86
2019-02-11T08:02:21.527Z,4.92
2019-02-11T08:04:54.740Z,5.01
2019-02-11T08:07:28.181Z,5.07
2019-02-11T08:10:01.924Z,5.09
2019-02-11T08:12:35.035Z,5.10
2019-02-11T08:15:08.858Z,5.18
2019-02-11T08:17:42.287Z,5.17
2019-02-11T08:20:15.652Z,5.23
2019-02-11T08:23:11.774Z,5.29
2019-02-11T08:25:39.211Z,5.29
2019-02-11T08:28:19.427Z,5.26
2019-02-11T08:30:49.196Z,5.30
2019-02-11T08:33:22.746Z,5.41
2019-02-11T08:35:55.878Z,5.46
2019-02-11T08:38:40.589Z,5.54
2019-02-11T08:41:14.348Z,5.51
2019-02-11T08:43:47.732Z,5.53
2019-02-11T08:46:22.213Z,5.53
2019-02-11T08:48:56.047Z,5.49
2019-02-11T08:51:29.873Z,5.48
2019-02-11T08:54:03.022Z,5.43
2019-02-11T08:56:36.855Z,5.45
2019-02-11T08:59:10.334Z,5.49
2019-02-11T09:01:43.811Z,5.57
2019-02-11T09:04:19.143Z,5.66
2019-02-11T09:06:53.342Z,5.68
2019-02-11T09:09:27.946Z,5.74
2019-02-11T09:12:01.606Z,5.72
2019-02-11T09:14:35.819Z,5.84
2019-02-11T09:17:10.553Z,5.90
2019-02-11T09:19:43.688Z,5.87
2019-02-11T09:22:25.460Z,6.00
2019-02-11T09:24:59.430Z,6.06
2019-02-11T09:27:32.867Z,5.96
2019-02-11T09:30:07.490Z,5.92
2019-02-11T09:32:40.645Z,5.88
2019-02-11T09:35:14.739Z,5.90
2019-02-11T09:37:48.491Z,5.96
2019-02-11T09:40:21.969Z,6.01
2019-02-11T09:42:55.379Z,6.04
2019-02-11T09:45:28.531Z,6.10
2019-02-11T09:48:11.110Z,6.22
2019-02-11T09:50:48.054Z,6.21
2019-02-11T09:53:21.218Z,6.20
2019-02-11T09:55:54.819Z,6.27
2019-02-11T09:58:28.567Z,6.25
2019-02-11T10:01:02.470Z,6.27
2019-02-11T10:03:35.889Z,6.20
2019-02-11T10:06:09.713Z,6.26
2019-02-11T10:08:58.254Z,6.42
2019-02-11T10:11:31.691Z,6.38
2019-02-11T10:14:05.286Z,6.43
2019-02-11T10:16:39.099Z,6.52
2019-02-11T10:19:13.144Z,6.48
2019-02-11T10:21:55.279Z,6.45
2019-02-11T10:24:30.484Z,6.36
2019-02-11T10:27:04.001Z,6.42
2019-02-11T10:29:37.354Z,6.50
2019-02-11T10:32:11.267Z,6.49
2019-02-11T10:34:44.421Z,6.52
2019-02-11T10:37:30.123Z,6.64
2019-02-11T10:40:04.016Z,6.64
2019-02-11T10:42:37.571Z,6.58
2019-02-11T10:45:11.948Z,6.53
2019-02-11T10:47:54.044Z,6.47
2019-02-11T10:50:27.837Z,6.40
2019-02-11T10:53:01.359Z,6.48
2019-02-11T10:55:35.152Z,6.56
2019-02-11T10:58:17.723Z,7.00
2019-02-11T11:00:51.615Z,7.12
2019-02-11T11:03:33.779Z,6.99
2019-02-11T11:06:07.748Z,6.88
2019-02-11T11:08:41.580Z,6.88
2019-02-11T11:11:24.346Z,6.91
2019-02-11T11:13:58.189Z,6.81
2019-02-11T11:16:40.268Z,6.85
2019-02-11T11:19:16.206Z,6.65
2019-02-11T11:22:01.635Z,6.49
2019-02-11T11:24:34.743Z,6.37
2019-02-11T11:27:07.912Z,6.36
2019-02-11T11:29:50.165Z,6.44
2019-02-11T11:32:25.009Z,6.39
2019-02-11T11:34:58.498Z,6.35
2019-02-11T11:37:32.287Z,6.25
2019-02-11T11:40:06.510Z,5.74
2019-02-11T11:42:48.988Z,5.35
2019-02-11T11:45:22.539Z,5.22
2019-02-11T11:47:56.298Z,5.14
2019-02-11T11:50:29.841Z,5.03
2019-02-11T11:53:03.428Z,4.89
2019-02-11T11:55:37.006Z,4.88
2019-02-11T11:58:10.486Z,5.09
2019-02-11T12:00:46.218Z,5.37
2019-02-11T12:03:29.610Z,5.60
2019-02-11T12:06:17.848Z,5.73
2019-02-11T12:08:51.258Z,5.73
2019-02-11T12:11:24.632Z,5.81
2019-02-11T12:14:07.464Z,5.82
2019-02-11T12:16:56.040Z,5.89
2019-02-11T12:19:15.395Z,5.96
2019-02-11T12:21:57.534Z,6.04
2019-02-11T12:24:31.056Z,5.96
2019-02-11T12:27:04.476Z,6.00
2019-02-11T12:29:38.086Z,6.02
2019-02-11T12:32:11.221Z,6.03
2019-02-11T12:34:54.116Z,6.17
2019-02-11T12:37:36.250Z,6.22
2019-02-11T12:40:10.319Z,6.24
2019-02-11T12:42:43.994Z,6.25
2019-02-11T12:45:18.596Z,6.22
2019-02-11T12:47:52.847Z,6.28
2019-02-11T12:50:35.129Z,6.27
2019-02-11T12:53:08.607Z,6.31
2019-02-11T12:55:42.797Z,6.38
2019-02-11T12:58:16.531Z,6.43
2019-02-11T13:00:59.052Z,6.37
2019-02-11T13:03:32.569Z,6.41
2019-02-11T13:06:06.172Z,6.49
2019-02-11T13:08:39.312Z,6.56
2019-02-11T13:11:13.080Z,6.57
2019-02-11T13:13:46.248Z,6.41
2019-02-11T13:16:27.985Z,6.32
2019-02-11T13:19:01.426Z,6.23
2019-02-11T13:21:34.666Z,6.20
2019-02-11T13:24:17.086Z,6.25
2019-02-11T13:26:59.660Z,6.62
2019-02-11T13:29:32.824Z,6.94
2019-02-11T13:32:10.156Z,7.27
2019-02-11T13:34:41.165Z,7.21
2019-02-11T13:37:15.799Z,6.96
2019-02-11T13:39:49.265Z,6.60
2019-02-11T13:42:22.537Z,6.38
2019-02-11T13:44:56.036Z,6.30
2019-02-11T13:47:29.462Z,6.20
2019-02-11T13:50:03.258Z,6.10
2019-02-11T13:52:37.369Z,6.09
2019-02-11T13:55:11.257Z,6.06
2019-02-11T13:57:54.838Z,6.05
2019-02-11T14:00:31.890Z,6.02
2019-02-11T14:03:06.440Z,6.06
2019-02-11T14:05:48.455Z,6.37
2019-02-11T14:08:22.327Z,6.44
2019-02-11T14:10:55.837Z,6.31
2019-02-11T14:13:38.409Z,6.22
2019-02-11T14:16:11.821Z,6.16
2019-02-11T14:18:55.365Z,6.23
2019-02-11T14:21:28.804Z,6.22
2019-02-11T14:24:01.983Z,6.18
2019-02-11T14:26:35.403Z,6.11
2019-02-11T14:29:08.944Z,6.05
2019-02-11T14:31:42.588Z,6.11
2019-02-11T14:34:15.933Z,6.08
2019-02-11T14:36:58.211Z,6.10
2019-02-11T14:39:31.819Z,6.00
2019-02-11T14:42:05.462Z,6.06
2019-02-11T14:44:39.141Z,6.07
2019-02-11T14:47:16.931Z,6.18
2019-02-11T14:49:53.888Z,6.27
2019-02-11T14:52:27.373Z,6.38
2019-02-11T14:55:00.704Z,6.22
2019-02-11T14:57:33.796Z,6.01
2019-02-11T15:00:19.015Z,5.99
2019-02-11T15:02:53.198Z,5.95
2019-02-11T15:05:26.734Z,5.93
2019-02-11T15:08:00.449Z,5.95
2019-02-11T15:10:34.219Z,5.86
2019-02-11T15:13:18.594Z,5.77
2019-02-11T15:15:52.180Z,5.69
2019-02-11T15:18:33.966Z,5.60
2019-02-11T15:21:17.581Z,5.59
2019-02-11T15:23:59.745Z,5.53
2019-02-11T15:26:32.990Z,5.38
2019-02-11T15:29:16.579Z,5.45
2019-02-11T15:31:50.145Z,5.41
2019-02-11T15:34:23.619Z,5.42
2019-02-11T15:36:57.744Z,5.39
2019-02-11T15:39:39.817Z,5.40
2019-02-11T15:42:13.322Z,5.37
2019-02-11T15:44:46.694Z,5.35
2019-02-11T15:47:20.254Z,5.26
2019-02-11T15:49:54.777Z,5.21
2019-02-11T15:52:28.200Z,5.17
2019-02-11T15:55:01.776Z,5.13
2019-02-11T15:57:35.280Z,5.03
2019-02-11T16:00:10.856Z,5.02
2019-02-11T16:02:59.472Z,5.02
2019-02-11T16:05:33.042Z,4.97
2019-02-11T16:08:06.438Z,4.88
2019-02-11T16:10:39.897Z,4.86
2019-02-11T16:13:13.965Z,4.80
2019-02-11T16:15:47.542Z,4.76
2019-02-11T16:18:20.993Z,4.74
2019-02-11T16:20:54.889Z,4.71
2019-02-11T16:23:37.482Z,4.77
2019-02-11T16:26:10.930Z,4.63
2019-02-11T16:28:44.597Z,4.64
2019-02-11T16:31:18.757Z,4.63
2019-02-11T16:34:01.114Z,4.61
2019-02-11T16:36:34.598Z,4.55
2019-02-11T16:39:08.794Z,4.54
2019-02-11T16:41:51.538Z,4.54
2019-02-11T16:44:33.906Z,4.49
2019-02-11T16:47:09.115Z,4.36
2019-02-11T16:49:42.611Z,4.37
2019-02-11T16:52:16.392Z,4.38
2019-02-11T16:54:50.196Z,4.36
2019-02-11T16:57:23.676Z,4.36
2019-02-11T16:59:57.621Z,4.39
2019-02-11T17:02:40.118Z,4.44
2019-02-11T17:05:24.310Z,4.49
2019-02-11T17:07:57.776Z,4.46
2019-02-11T17:10:30.962Z,4.54
2019-02-11T17:13:06.045Z,4.57
2019-02-11T17:15:48.134Z,4.63
2019-02-11T17:18:21.582Z,4.61
2019-02-11T17:20:56.339Z,4.59
2019-02-11T17:23:29.473Z,4.63
2019-02-11T17:26:13.981Z,4.76
2019-02-11T17:28:59.365Z,4.79
2019-02-11T17:31:33.042Z,4.73
2019-02-11T17:34:06.255Z,4.72
2019-02-11T17:36:39.479Z,4.77
2019-02-11T17:39:13.035Z,4.71
2019-02-11T17:41:46.967Z,4.77
2019-02-11T17:44:20.205Z,4.80
2019-02-11T17:46:55.874Z,4.85
2019-02-11T17:49:29.692Z,4.72
2019-02-11T17:52:03.690Z,4.55
2019-02-11T17:54:38.384Z,4.40
2019-02-11T17:57:28.009Z,4.35
2019-02-11T18:00:01.383Z,4.14
2019-02-11T18:02:52.389Z,4.09
2019-02-11T18:05:26.471Z,3.98
2019-02-11T18:08:10.811Z,3.89
2019-02-11T18:10:44.355Z,3.83
2019-02-11T18:13:19.167Z,3.85
2019-02-11T18:15:53.988Z,3.83
2019-02-11T18:18:26.523Z,3.82
2019-02-11T18:20:59.778Z,3.85
2019-02-11T18:23:34.785Z,3.79
2019-02-11T18:26:08.711Z,3.80
2019-02-11T18:28:42.532Z,3.72
2019-02-11T18:31:16.372Z,3.64
2019-02-11T18:33:49.533Z,3.66
2019-02-11T18:36:23.316Z,3.60
2019-02-11T18:38:57.488Z,3.62
2019-02-11T18:41:39.628Z,3.62
2019-02-11T18:44:13.630Z,3.57
2019-02-11T18:46:47.090Z,3.55
2019-02-11T18:49:21.266Z,3.59
2019-02-11T18:52:03.229Z,3.72
2019-02-11T18:54:52.410Z,3.72
2019-02-11T18:57:26.079Z,3.71
2019-02-11T18:59:59.687Z,3.79
2019-02-11T19:02:36.751Z,3.83
2019-02-11T19:05:20.169Z,3.93
2019-02-11T19:07:56.408Z,4.00
2019-02-11T19:10:40.040Z,4.07
2019-02-11T19:13:16.010Z,4.07
2019-02-11T19:15:49.864Z,4.13
2019-02-11T19:18:22.648Z,4.17
2019-02-11T19:20:56.808Z,4.21
2019-02-11T19:23:41.446Z,4.28
2019-02-11T19:26:20.778Z,4.29
2019-02-11T19:28:55.126Z,4.28
2019-02-11T19:31:29.289Z,4.27
2019-02-11T19:34:11.778Z,4.34
2019-02-11T19:36:46.246Z,4.31
2019-02-11T19:39:29.617Z,4.38
2019-02-11T19:42:02.687Z,4.34
2019-02-11T19:44:45.279Z,4.42
2019-02-11T19:47:27.529Z,4.38
2019-02-11T19:50:05.195Z,4.26
2019-02-11T19:52:47.163Z,4.25
2019-02-11T19:55:24.958Z,4.16
2019-02-11T19:58:06.849Z,4.20
2019-02-11T20:00:40.695Z,4.08
2019-02-11T20:03:30.696Z,4.07
2019-02-11T20:06:14.971Z,4.18
2019-02-11T20:09:05.729Z,4.13
2019-02-11T20:11:38.329Z,4.14
2019-02-11T20:14:10.917Z,4.22
2019-02-11T20:16:44.890Z,4.25
2019-02-11T20:19:18.377Z,4.17
2019-02-11T20:21:52.381Z,4.16
2019-02-11T20:24:25.025Z,4.07
2019-02-11T20:26:58.126Z,3.94
2019-02-11T20:29:40.061Z,3.95
2019-02-11T20:32:13.530Z,3.91
2019-02-11T20:34:47.607Z,3.89
2019-02-11T20:37:21.774Z,3.84
2019-02-11T20:40:04.641Z,3.86
2019-02-11T20:42:46.958Z,3.85
2019-02-11T20:45:25.756Z,3.85
2019-02-11T20:48:08.105Z,3.86
2019-02-11T20:50:41.599Z,3.80
2019-02-11T20:53:15.003Z,3.79
2019-02-11T20:55:51.487Z,3.76
2019-02-11T20:58:23.859Z,3.72
2019-02-11T21:00:57.668Z,3.65
2019-02-11T21:03:31.344Z,3.62
2019-02-11T21:06:05.344Z,3.62
2019-02-11T21:08:48.383Z,3.61
2019-02-11T21:11:31.618Z,3.60
2019-02-11T21:14:07.771Z,3.56
2019-02-11T21:16:50.184Z,3.61
2019-02-11T21:19:24.869Z,3.52
2019-02-11T21:21:58.747Z,3.49
2019-02-11T21:24:32.440Z,3.50
2019-02-11T21:27:05.946Z,3.57
2019-02-11T21:29:41.716Z,3.59
2019-02-11T21:32:23.971Z,3.70
2019-02-11T21:34:58.521Z,3.71
2019-02-11T21:37:44.679Z,3.78
2019-02-11T21:40:27.504Z,3.85
2019-02-11T21:43:09.875Z,3.84
2019-02-11T21:45:43.109Z,3.81
2019-02-11T21:48:16.551Z,3.84
2019-02-11T21:50:50.422Z,3.83
2019-02-11T21:53:24.960Z,3.89
2019-02-11T21:56:07.510Z,3.87
2019-02-11T21:58:49.705Z,3.89
2019-02-11T22:01:24.161Z,3.85
2019-02-11T22:03:59.528Z,3.79
2019-02-11T22:06:32.715Z,3.83
2019-02-11T22:09:19.078Z,3.85
2019-02-11T22:12:01.298Z,3.87
2019-02-11T22:14:34.760Z,3.84
2019-02-11T22:17:07.616Z,3.85
2019-02-11T22:19:42.084Z,3.89
2019-02-11T22:22:15.526Z,3.87
2019-02-11T22:24:49.695Z,3.96
2019-02-11T22:27:33.336Z,3.99
2019-02-11T22:30:12.019Z,3.91
2019-02-11T22:32:45.878Z,3.87
2019-02-11T22:35:19.119Z,3.86
2019-02-11T22:37:52.725Z,3.77
2019-02-11T22:40:25.896Z,3.73
2019-02-11T22:42:59.062Z,3.70
2019-02-11T22:45:41.437Z,3.76
2019-02-11T22:48:15.026Z,3.66
2019-02-11T22:50:48.769Z,3.60
2019-02-11T22:53:31.804Z,3.59
2019-02-11T22:56:14.496Z,3.57
2019-02-11T22:58:57.305Z,3.53
2019-02-11T23:01:40.862Z,3.63
2019-02-11T23:04:14.789Z,3.55
2019-02-11T23:06:48.565Z,3.60
2019-02-11T23:09:23.067Z,3.50
2019-02-11T23:11:56.865Z,3.54
2019-02-11T23:14:29.564Z,3.55
2019-02-11T23:17:07.713Z,3.53
2019-02-11T23:19:45.357Z,3.61
2019-02-11T23:22:28.502Z,3.66
2019-02-11T23:25:04.063Z,3.61
2019-02-11T23:27:38.375Z,3.62
2019-02-11T23:30:13.805Z,3.68
2019-02-11T23:32:46.261Z,3.74
2019-02-11T23:35:20.152Z,3.77
2019-02-11T23:37:55.359Z,3.79
2019-02-11T23:40:30.769Z,3.88
2019-02-11T23:43:04.705Z,3.86
2019-02-11T23:45:48.801Z,3.90
2019-02-11T23:48:22.275Z,3.85
2019-02-11T23:51:00.464Z,3.86
2019-02-11T23:53:30.481Z,3.89
2019-02-11T23:56:04.561Z,3.94
2019-02-11T23:58:38.028Z,3.95
